sensor_id;sensor_type;location;lat;lon;timestamp;pressure;altitude;pressure_sealevel;temperature;humidity
71424;BME280;59240;51.370;-0.486;2022-07-17T00:01:31;102454.13;;;18.90;55.47
71424;BME280;59240;51.370;-0.486;2022-07-17T00:03:57;102449.03;;;18.84;55.50
71424;BME280;59240;51.370;-0.486;2022-07-17T00:06:24;102438.59;;;18.81;55.71
71424;BME280;59240;51.370;-0.486;2022-07-17T00:08:51;102439.81;;;18.69;55.43
71424;BME280;59240;51.370;-0.486;2022-07-17T00:11:18;102431.97;;;18.65;55.64
71424;BME280;59240;51.370;-0.486;2022-07-17T00:13:45;102443.50;;;18.62;55.72
71424;BME280;59240;51.370;-0.486;2022-07-17T00:16:12;102463.66;;;18.65;56.11
71424;BME280;59240;51.370;-0.486;2022-07-17T00:18:38;102443.78;;;18.53;55.70
71424;BME280;59240;51.370;-0.486;2022-07-17T00:21:05;102442.19;;;18.46;56.25
71424;BME280;59240;51.370;-0.486;2022-07-17T00:23:32;102466.63;;;18.54;55.94
71424;BME280;59240;51.370;-0.486;2022-07-17T00:25:59;102453.81;;;18.40;56.53
71424;BME280;59240;51.370;-0.486;2022-07-17T00:28:25;102477.41;;;18.45;55.75
71424;BME280;59240;51.370;-0.486;2022-07-17T00:30:52;102467.97;;;18.36;56.53
71424;BME280;59240;51.370;-0.486;2022-07-17T00:33:19;102464.53;;;18.34;56.10
71424;BME280;59240;51.370;-0.486;2022-07-17T00:35:45;102463.84;;;18.27;56.03
71424;BME280;59240;51.370;-0.486;2022-07-17T00:38:12;102451.06;;;18.12;55.50
71424;BME280;59240;51.370;-0.486;2022-07-17T00:40:40;102491.88;;;18.30;55.70
71424;BME280;59240;51.370;-0.486;2022-07-17T00:43:07;102463.28;;;18.15;55.33
71424;BME280;59240;51.370;-0.486;2022-07-17T00:45:34;102462.34;;;18.17;55.57
71424;BME280;59240;51.370;-0.486;2022-07-17T00:48:02;102465.13;;;18.13;56.04
71424;BME280;59240;51.370;-0.486;2022-07-17T00:50:40;102459.16;;;18.04;55.98
71424;BME280;59240;51.370;-0.486;2022-07-17T00:53:07;102472.97;;;18.14;56.27
71424;BME280;59240;51.370;-0.486;2022-07-17T00:55:35;102481.00;;;18.10;56.00
71424;BME280;59240;51.370;-0.486;2022-07-17T00:58:11;102477.56;;;18.08;56.01
71424;BME280;59240;51.370;-0.486;2022-07-17T01:00:39;102455.91;;;17.95;55.98
71424;BME280;59240;51.370;-0.486;2022-07-17T01:03:08;102478.63;;;18.00;56.46
71424;BME280;59240;51.370;-0.486;2022-07-17T01:05:35;102436.22;;;17.74;56.69
71424;BME280;59240;51.370;-0.486;2022-07-17T01:08:03;102434.53;;;17.70;57.44
71424;BME280;59240;51.370;-0.486;2022-07-17T01:10:29;102469.34;;;17.84;58.16
71424;BME280;59240;51.370;-0.486;2022-07-17T01:12:56;102471.25;;;17.79;58.34
71424;BME280;59240;51.370;-0.486;2022-07-17T01:15:23;102466.97;;;17.75;58.66
71424;BME280;59240;51.370;-0.486;2022-07-17T01:17:51;102472.28;;;17.73;58.50
71424;BME280;59240;51.370;-0.486;2022-07-17T01:20:18;102464.44;;;17.69;59.62
71424;BME280;59240;51.370;-0.486;2022-07-17T01:22:49;102471.63;;;17.64;59.39
71424;BME280;59240;51.370;-0.486;2022-07-17T01:25:20;102454.38;;;17.50;59.21
71424;BME280;59240;51.370;-0.486;2022-07-17T01:27:48;102467.41;;;17.55;59.67
71424;BME280;59240;51.370;-0.486;2022-07-17T01:30:15;102476.31;;;17.49;59.79
71424;BME280;59240;51.370;-0.486;2022-07-17T01:32:42;102446.13;;;17.27;59.49
71424;BME280;59240;51.370;-0.486;2022-07-17T01:35:11;102445.25;;;17.27;60.10
71424;BME280;59240;51.370;-0.486;2022-07-17T01:37:39;102441.09;;;17.18;60.51
71424;BME280;59240;51.370;-0.486;2022-07-17T01:40:07;102461.88;;;17.30;60.93
71424;BME280;59240;51.370;-0.486;2022-07-17T01:42:35;102460.19;;;17.26;60.83
71424;BME280;59240;51.370;-0.486;2022-07-17T01:45:02;102450.03;;;17.11;60.68
71424;BME280;59240;51.370;-0.486;2022-07-17T01:47:29;102435.31;;;17.02;61.18
71424;BME280;59240;51.370;-0.486;2022-07-17T01:49:57;102464.00;;;17.13;61.84
71424;BME280;59240;51.370;-0.486;2022-07-17T01:52:25;102453.81;;;16.98;61.08
71424;BME280;59240;51.370;-0.486;2022-07-17T01:54:51;102437.31;;;16.91;61.68
71424;BME280;59240;51.370;-0.486;2022-07-17T01:57:19;102466.09;;;16.99;61.71
71424;BME280;59240;51.370;-0.486;2022-07-17T01:59:46;102424.47;;;16.74;61.93
71424;BME280;59240;51.370;-0.486;2022-07-17T02:02:13;102452.22;;;16.90;62.18
71424;BME280;59240;51.370;-0.486;2022-07-17T02:04:42;102450.56;;;16.86;62.19
71424;BME280;59240;51.370;-0.486;2022-07-17T02:07:10;102455.81;;;16.86;61.99
71424;BME280;59240;51.370;-0.486;2022-07-17T02:09:37;102458.56;;;16.82;61.93
71424;BME280;59240;51.370;-0.486;2022-07-17T02:12:04;102447.25;;;16.77;62.58
71424;BME280;59240;51.370;-0.486;2022-07-17T02:14:32;102451.69;;;16.75;62.20
71424;BME280;59240;51.370;-0.486;2022-07-17T02:16:59;102454.41;;;16.70;62.69
71424;BME280;59240;51.370;-0.486;2022-07-17T02:19:26;102427.63;;;16.50;62.68
71424;BME280;59240;51.370;-0.486;2022-07-17T02:21:52;102452.94;;;16.54;62.65
71424;BME280;59240;51.370;-0.486;2022-07-17T02:24:19;102469.56;;;16.57;62.08
71424;BME280;59240;51.370;-0.486;2022-07-17T02:26:46;102460.09;;;16.49;62.65
71424;BME280;59240;51.370;-0.486;2022-07-17T02:29:13;102447.00;;;16.44;62.83
71424;BME280;59240;51.370;-0.486;2022-07-17T02:31:39;102470.59;;;16.49;63.19
71424;BME280;59240;51.370;-0.486;2022-07-17T02:34:06;102475.91;;;16.46;62.88
71424;BME280;59240;51.370;-0.486;2022-07-17T02:36:32;102456.81;;;16.36;62.91
71424;BME280;59240;51.370;-0.486;2022-07-17T02:39:00;102469.78;;;16.45;61.94
71424;BME280;59240;51.370;-0.486;2022-07-17T02:41:27;102462.00;;;16.40;62.65
71424;BME280;59240;51.370;-0.486;2022-07-17T02:43:54;102460.31;;;16.36;61.98
71424;BME280;59240;51.370;-0.486;2022-07-17T02:46:21;102451.63;;;16.31;62.45
71424;BME280;59240;51.370;-0.486;2022-07-17T02:48:47;102455.13;;;16.33;62.10
71424;BME280;59240;51.370;-0.486;2022-07-17T02:51:14;102442.16;;;16.23;63.02
71424;BME280;59240;51.370;-0.486;2022-07-17T02:53:40;102460.38;;;16.33;62.68
71424;BME280;59240;51.370;-0.486;2022-07-17T02:56:07;102415.31;;;16.07;62.62
71424;BME280;59240;51.370;-0.486;2022-07-17T02:58:34;102454.38;;;16.27;63.45
71424;BME280;59240;51.370;-0.486;2022-07-17T03:01:01;102450.03;;;16.24;62.56
71424;BME280;59240;51.370;-0.486;2022-07-17T03:03:28;102423.97;;;16.12;62.74
71424;BME280;59240;51.370;-0.486;2022-07-17T03:05:55;102450.09;;;16.21;62.71
71424;BME280;59240;51.370;-0.486;2022-07-17T03:08:22;102427.59;;;16.05;62.98
71424;BME280;59240;51.370;-0.486;2022-07-17T03:10:48;102430.22;;;16.05;62.90
71424;BME280;59240;51.370;-0.486;2022-07-17T03:13:15;102425.97;;;15.98;62.96
71424;BME280;59240;51.370;-0.486;2022-07-17T03:15:42;102436.38;;;16.04;63.04
71424;BME280;59240;51.370;-0.486;2022-07-17T03:18:09;102432.09;;;15.98;62.89
71424;BME280;59240;51.370;-0.486;2022-07-17T03:20:35;102431.34;;;15.92;62.62
71424;BME280;59240;51.370;-0.486;2022-07-17T03:23:03;102439.91;;;16.03;62.65
71424;BME280;59240;51.370;-0.486;2022-07-17T03:25:29;102433.97;;;15.93;62.75
71424;BME280;59240;51.370;-0.486;2022-07-17T03:27:57;102466.19;;;16.03;63.38
71424;BME280;59240;51.370;-0.486;2022-07-17T03:30:24;102464.47;;;16.02;63.47
71424;BME280;59240;51.370;-0.486;2022-07-17T03:32:51;102459.31;;;15.96;62.93
71424;BME280;59240;51.370;-0.486;2022-07-17T03:35:17;102461.09;;;15.95;62.88
71424;BME280;59240;51.370;-0.486;2022-07-17T03:37:44;102462.94;;;15.89;62.89
71424;BME280;59240;51.370;-0.486;2022-07-17T03:40:11;102466.41;;;15.91;62.88
71424;BME280;59240;51.370;-0.486;2022-07-17T03:42:38;102470.78;;;15.90;63.57
71424;BME280;59240;51.370;-0.486;2022-07-17T03:45:05;102470.00;;;15.86;63.50
71424;BME280;59240;51.370;-0.486;2022-07-17T03:47:33;102477.03;;;15.84;63.42
71424;BME280;59240;51.370;-0.486;2022-07-17T03:50:00;102471.81;;;15.81;63.19
71424;BME280;59240;51.370;-0.486;2022-07-17T03:52:27;102461.47;;;15.72;63.00
71424;BME280;59240;51.370;-0.486;2022-07-17T03:54:53;102471.91;;;15.78;62.92
71424;BME280;59240;51.370;-0.486;2022-07-17T03:57:20;102459.72;;;15.71;63.59
71424;BME280;59240;51.370;-0.486;2022-07-17T03:59:46;102473.69;;;15.75;63.11
71424;BME280;59240;51.370;-0.486;2022-07-17T04:02:13;102455.47;;;15.64;63.54
71424;BME280;59240;51.370;-0.486;2022-07-17T04:04:40;102470.28;;;15.68;63.27
71424;BME280;59240;51.370;-0.486;2022-07-17T04:07:06;102459.88;;;15.62;63.55
71424;BME280;59240;51.370;-0.486;2022-07-17T04:09:58;102477.28;;;15.69;63.12
71424;BME280;59240;51.370;-0.486;2022-07-17T04:12:25;102465.09;;;15.65;64.12
71424;BME280;59240;51.370;-0.486;2022-07-17T04:14:52;102472.94;;;15.67;63.86
71424;BME280;59240;51.370;-0.486;2022-07-17T04:17:19;102477.34;;;15.66;62.94
71424;BME280;59240;51.370;-0.486;2022-07-17T04:19:46;102471.25;;;15.63;63.78
71424;BME280;59240;51.370;-0.486;2022-07-17T04:22:13;102421.72;;;15.37;63.38
71424;BME280;59240;51.370;-0.486;2022-07-17T04:24:40;102459.03;;;15.57;63.94
71424;BME280;59240;51.370;-0.486;2022-07-17T04:27:07;102457.34;;;15.54;63.69
71424;BME280;59240;51.370;-0.486;2022-07-17T04:29:35;102439.13;;;15.44;63.81
71424;BME280;59240;51.370;-0.486;2022-07-17T04:32:02;102460.81;;;15.56;63.55
71424;BME280;59240;51.370;-0.486;2022-07-17T04:34:29;102469.59;;;15.55;63.64
71424;BME280;59240;51.370;-0.486;2022-07-17T04:36:56;102445.28;;;15.41;63.67
71424;BME280;59240;51.370;-0.486;2022-07-17T04:39:23;102428.00;;;15.28;64.02
71424;BME280;59240;51.370;-0.486;2022-07-17T04:41:50;102455.88;;;15.38;64.12
71424;BME280;59240;51.370;-0.486;2022-07-17T04:44:18;102455.00;;;15.38;64.82
71424;BME280;59240;51.370;-0.486;2022-07-17T04:46:45;102468.00;;;15.44;64.52
71424;BME280;59240;51.370;-0.486;2022-07-17T04:49:12;102455.03;;;15.35;65.06
71424;BME280;59240;51.370;-0.486;2022-07-17T04:51:39;102441.09;;;15.29;65.24
71424;BME280;59240;51.370;-0.486;2022-07-17T04:54:06;102466.38;;;15.38;64.20
71424;BME280;59240;51.370;-0.486;2022-07-17T04:56:33;102471.59;;;15.40;65.22
71424;BME280;59240;51.370;-0.486;2022-07-17T04:58:59;102452.50;;;15.28;65.23
71424;BME280;59240;51.370;-0.486;2022-07-17T05:01:26;102443.81;;;15.23;64.90
71424;BME280;59240;51.370;-0.486;2022-07-17T05:03:53;102444.69;;;15.22;64.65
71424;BME280;59240;51.370;-0.486;2022-07-17T05:06:20;102434.34;;;15.13;65.24
71424;BME280;59240;51.370;-0.486;2022-07-17T05:08:46;102449.06;;;15.25;64.88
71424;BME280;59240;51.370;-0.486;2022-07-17T05:11:13;102444.66;;;15.25;65.51
71424;BME280;59240;51.370;-0.486;2022-07-17T05:13:40;102429.03;;;15.16;65.32
71424;BME280;59240;51.370;-0.486;2022-07-17T05:16:07;102447.22;;;15.31;64.90
71424;BME280;59240;51.370;-0.486;2022-07-17T05:18:33;102455.78;;;15.44;64.83
71424;BME280;59240;51.370;-0.486;2022-07-17T05:21:00;102461.84;;;15.48;64.99
71424;BME280;59240;51.370;-0.486;2022-07-17T05:23:27;102447.00;;;15.45;64.68
71424;BME280;59240;51.370;-0.486;2022-07-17T05:25:53;102475.38;;;15.77;65.21
71424;BME280;59240;51.370;-0.486;2022-07-17T05:28:20;102457.72;;;15.87;64.44
71424;BME280;59240;51.370;-0.486;2022-07-17T05:30:47;102473.19;;;16.04;64.26
71424;BME280;59240;51.370;-0.486;2022-07-17T05:33:14;102489.63;;;16.17;63.46
71424;BME280;59240;51.370;-0.486;2022-07-17T05:35:40;102486.97;;;16.17;63.27
71424;BME280;59240;51.370;-0.486;2022-07-17T05:38:07;102477.28;;;16.20;63.08
71424;BME280;59240;51.370;-0.486;2022-07-17T05:40:34;102472.69;;;16.31;62.90
71424;BME280;59240;51.370;-0.486;2022-07-17T05:43:00;102465.47;;;16.42;62.49
71424;BME280;59240;51.370;-0.486;2022-07-17T05:45:27;102454.03;;;16.44;62.55
71424;BME280;59240;51.370;-0.486;2022-07-17T05:47:53;102478.13;;;16.67;61.52
71424;BME280;59240;51.370;-0.486;2022-07-17T05:50:20;102452.69;;;16.66;61.95
71424;BME280;59240;51.370;-0.486;2022-07-17T05:52:47;102443.81;;;16.73;61.51
71424;BME280;59240;51.370;-0.486;2022-07-17T05:55:14;102460.75;;;17.02;60.44
71424;BME280;59240;51.370;-0.486;2022-07-17T05:57:40;102472.53;;;17.24;60.59
71424;BME280;59240;51.370;-0.486;2022-07-17T06:00:07;102477.16;;;17.52;60.51
71424;BME280;59240;51.370;-0.486;2022-07-17T06:02:34;102474.97;;;17.69;59.89
71424;BME280;59240;51.370;-0.486;2022-07-17T06:05:02;102466.91;;;17.78;59.85
71424;BME280;59240;51.370;-0.486;2022-07-17T06:07:28;102461.06;;;17.99;60.00
71424;BME280;59240;51.370;-0.486;2022-07-17T06:09:55;102473.53;;;18.27;59.53
71424;BME280;59240;51.370;-0.486;2022-07-17T06:12:22;102458.28;;;18.37;59.04
71424;BME280;59240;51.370;-0.486;2022-07-17T06:14:48;102477.81;;;18.62;59.30
71424;BME280;59240;51.370;-0.486;2022-07-17T06:17:15;102461.78;;;18.70;58.81
71424;BME280;59240;51.370;-0.486;2022-07-17T06:19:41;102461.44;;;18.82;58.51
71424;BME280;59240;51.370;-0.486;2022-07-17T06:22:08;102474.91;;;19.02;58.10
71424;BME280;59240;51.370;-0.486;2022-07-17T06:24:35;102468.28;;;19.17;58.06
71424;BME280;59240;51.370;-0.486;2022-07-17T06:27:01;102462.69;;;19.26;58.22
71424;BME280;59240;51.370;-0.486;2022-07-17T06:29:28;102473.34;;;19.51;57.81
71424;BME280;59240;51.370;-0.486;2022-07-17T06:31:55;102462.38;;;19.65;57.57
71424;BME280;59240;51.370;-0.486;2022-07-17T06:34:21;102450.53;;;19.77;57.14
71424;BME280;59240;51.370;-0.486;2022-07-17T06:36:48;102448.34;;;19.88;55.93
71424;BME280;59240;51.370;-0.486;2022-07-17T06:39:15;102421.84;;;19.89;55.73
71424;BME280;59240;51.370;-0.486;2022-07-17T06:41:41;102457.13;;;20.15;55.45
71424;BME280;59240;51.370;-0.486;2022-07-17T06:44:08;102443.53;;;20.24;55.08
71424;BME280;59240;51.370;-0.486;2022-07-17T06:46:34;102466.47;;;20.50;54.22
71424;BME280;59240;51.370;-0.486;2022-07-17T06:49:01;102445.28;;;20.50;54.28
71424;BME280;59240;51.370;-0.486;2022-07-17T06:51:28;102428.44;;;20.53;53.94
71424;BME280;59240;51.370;-0.486;2022-07-17T06:53:55;102452.88;;;20.83;53.69
71424;BME280;59240;51.370;-0.486;2022-07-17T06:56:22;102447.22;;;20.92;53.12
71424;BME280;59240;51.370;-0.486;2022-07-17T06:58:49;102445.97;;;21.02;52.70
71424;BME280;59240;51.370;-0.486;2022-07-17T07:01:16;102470.47;;;21.30;52.47
71424;BME280;59240;51.370;-0.486;2022-07-17T07:03:42;102446.47;;;21.34;52.02
71424;BME280;59240;51.370;-0.486;2022-07-17T07:06:09;102479.69;;;21.64;51.64
71424;BME280;59240;51.370;-0.486;2022-07-17T07:08:36;102459.81;;;21.74;51.32
71424;BME280;59240;51.370;-0.486;2022-07-17T07:11:02;102465.34;;;21.90;50.93
71424;BME280;59240;51.370;-0.486;2022-07-17T07:13:30;102480.44;;;22.10;50.47
71424;BME280;59240;51.370;-0.486;2022-07-17T07:15:57;102466.63;;;22.22;50.14
71424;BME280;59240;51.370;-0.486;2022-07-17T07:18:23;102466.88;;;22.36;49.74
71424;BME280;59240;51.370;-0.486;2022-07-17T07:20:50;102466.03;;;22.55;49.20
71424;BME280;59240;51.370;-0.486;2022-07-17T07:23:16;102482.66;;;22.79;49.22
71424;BME280;59240;51.370;-0.486;2022-07-17T07:25:43;102479.41;;;22.92;48.10
71424;BME280;59240;51.370;-0.486;2022-07-17T07:28:11;102468.44;;;22.99;47.62
71424;BME280;59240;51.370;-0.486;2022-07-17T07:30:38;102495.59;;;23.24;47.09
71424;BME280;59240;51.370;-0.486;2022-07-17T07:33:04;102483.09;;;23.26;47.32
71424;BME280;59240;51.370;-0.486;2022-07-17T07:35:31;102498.63;;;23.53;46.47
71424;BME280;59240;51.370;-0.486;2022-07-17T07:37:59;102499.88;;;23.64;46.21
71424;BME280;59240;51.370;-0.486;2022-07-17T07:40:26;102470.69;;;23.63;45.57
71424;BME280;59240;51.370;-0.486;2022-07-17T07:42:52;102468.19;;;23.77;45.20
71424;BME280;59240;51.370;-0.486;2022-07-17T07:45:19;102498.41;;;24.11;44.57
71424;BME280;59240;51.370;-0.486;2022-07-17T07:47:48;102516.03;;;24.31;44.10
71424;BME280;59240;51.370;-0.486;2022-07-17T07:50:17;102514.53;;;24.42;43.36
71424;BME280;59240;51.370;-0.486;2022-07-17T07:52:45;102505.63;;;24.43;42.68
71424;BME280;59240;51.370;-0.486;2022-07-17T07:55:12;102498.84;;;24.53;42.01
71424;BME280;59240;51.370;-0.486;2022-07-17T07:57:47;102501.63;;;24.68;42.22
71424;BME280;59240;51.370;-0.486;2022-07-17T08:00:14;102520.69;;;24.93;41.83
71424;BME280;59240;51.370;-0.486;2022-07-17T08:02:41;102494.63;;;24.98;41.54
71424;BME280;59240;51.370;-0.486;2022-07-17T08:05:08;102484.41;;;25.06;40.98
71424;BME280;59240;51.370;-0.486;2022-07-17T08:07:36;102500.94;;;25.29;40.67
71424;BME280;59240;51.370;-0.486;2022-07-17T08:10:04;102468.16;;;25.27;40.64
71424;BME280;59240;51.370;-0.486;2022-07-17T08:12:31;102496.78;;;25.55;40.00
71424;BME280;59240;51.370;-0.486;2022-07-17T08:15:11;102501.22;;;25.70;39.44
71424;BME280;59240;51.370;-0.486;2022-07-17T08:17:41;102456.44;;;25.59;39.21
71424;BME280;59240;51.370;-0.486;2022-07-17T08:20:08;102468.28;;;25.85;39.02
71424;BME280;59240;51.370;-0.486;2022-07-17T08:22:46;102481.13;;;26.09;38.24
71424;BME280;59240;51.370;-0.486;2022-07-17T08:25:33;102508.56;;;26.41;38.52
71424;BME280;59240;51.370;-0.486;2022-07-17T08:28:03;102506.75;;;26.56;38.00
71424;BME280;59240;51.370;-0.486;2022-07-17T08:30:30;102485.00;;;26.62;37.77
71424;BME280;59240;51.370;-0.486;2022-07-17T08:33:04;102472.50;;;26.77;35.96
71424;BME280;59240;51.370;-0.486;2022-07-17T08:35:32;102495.59;;;27.06;35.92
71424;BME280;59240;51.370;-0.486;2022-07-17T08:37:59;102472.47;;;27.05;35.43
71424;BME280;59240;51.370;-0.486;2022-07-17T08:40:30;102480.25;;;27.22;35.12
71424;BME280;59240;51.370;-0.486;2022-07-17T08:42:59;102491.69;;;27.51;34.03
71424;BME280;59240;51.370;-0.486;2022-07-17T08:45:26;102495.19;;;27.66;33.65
71424;BME280;59240;51.370;-0.486;2022-07-17T08:48:00;102467.09;;;27.59;32.58
71424;BME280;59240;51.370;-0.486;2022-07-17T08:50:32;102465.25;;;27.74;32.25
71424;BME280;59240;51.370;-0.486;2022-07-17T08:52:59;102463.75;;;27.83;33.27
71424;BME280;59240;51.370;-0.486;2022-07-17T08:55:26;102481.56;;;28.09;32.15
71424;BME280;59240;51.370;-0.486;2022-07-17T08:57:54;102439.13;;;28.03;32.54
71424;BME280;59240;51.370;-0.486;2022-07-17T09:00:25;102471.75;;;28.35;31.91
71424;BME280;59240;51.370;-0.486;2022-07-17T09:03:03;102474.50;;;28.46;30.75
71424;BME280;59240;51.370;-0.486;2022-07-17T09:05:38;102449.53;;;28.46;31.07
71424;BME280;59240;51.370;-0.486;2022-07-17T09:08:07;102441.63;;;28.68;31.01
71424;BME280;59240;51.370;-0.486;2022-07-17T09:10:43;102427.88;;;28.85;30.85
71424;BME280;59240;51.370;-0.486;2022-07-17T09:15:51;102481.19;;;29.51;30.42
71424;BME280;59240;51.370;-0.486;2022-07-17T09:18:18;102488.59;;;29.71;29.20
71424;BME280;59240;51.370;-0.486;2022-07-17T09:20:50;102484.78;;;29.86;29.04
71424;BME280;59240;51.370;-0.486;2022-07-17T09:23:19;102486.00;;;30.05;28.74
71424;BME280;59240;51.370;-0.486;2022-07-17T09:25:48;102468.91;;;30.06;29.01
71424;BME280;59240;51.370;-0.486;2022-07-17T09:28:16;102487.56;;;30.20;28.62
71424;BME280;59240;51.370;-0.486;2022-07-17T09:30:46;102467.50;;;30.13;27.66
71424;BME280;59240;51.370;-0.486;2022-07-17T09:33:16;102484.25;;;30.28;27.95
71424;BME280;59240;51.370;-0.486;2022-07-17T09:35:48;102446.47;;;30.18;28.24
71424;BME280;59240;51.370;-0.486;2022-07-17T09:38:32;102482.06;;;30.55;27.33
71424;BME280;59240;51.370;-0.486;2022-07-17T09:41:03;102469.25;;;30.70;27.71
71424;BME280;59240;51.370;-0.486;2022-07-17T09:49:10;102472.88;;;31.02;27.26
71424;BME280;59240;51.370;-0.486;2022-07-17T09:51:40;102469.88;;;31.17;26.90
71424;BME280;59240;51.370;-0.486;2022-07-17T09:54:09;102440.28;;;31.17;27.28
71424;BME280;59240;51.370;-0.486;2022-07-17T09:56:38;102448.75;;;31.44;26.73
71424;BME280;59240;51.370;-0.486;2022-07-17T09:59:08;102446.78;;;31.46;26.53
71424;BME280;59240;51.370;-0.486;2022-07-17T10:01:37;102457.44;;;31.69;26.36
71424;BME280;59240;51.370;-0.486;2022-07-17T10:04:05;102441.75;;;31.74;25.69
71424;BME280;59240;51.370;-0.486;2022-07-17T10:06:32;102427.78;;;31.80;25.36
71424;BME280;59240;51.370;-0.486;2022-07-17T10:09:00;102462.84;;;32.10;25.60
71424;BME280;59240;51.370;-0.486;2022-07-17T10:11:29;102460.06;;;32.22;25.11
71424;BME280;59240;51.370;-0.486;2022-07-17T10:14:05;102424.41;;;32.18;24.50
71424;BME280;59240;51.370;-0.486;2022-07-17T10:16:34;102443.16;;;32.41;25.31
71424;BME280;59240;51.370;-0.486;2022-07-17T10:19:17;102441.63;;;32.57;25.44
71424;BME280;59240;51.370;-0.486;2022-07-17T10:21:59;102438.44;;;32.83;25.41
71424;BME280;59240;51.370;-0.486;2022-07-17T10:24:27;102444.75;;;33.12;24.70
71424;BME280;59240;51.370;-0.486;2022-07-17T10:26:56;102444.31;;;33.27;24.25
71424;BME280;59240;51.370;-0.486;2022-07-17T10:29:36;102435.66;;;33.33;24.35
71424;BME280;59240;51.370;-0.486;2022-07-17T10:32:16;102441.06;;;33.62;24.14
71424;BME280;59240;51.370;-0.486;2022-07-17T10:34:53;102410.66;;;33.50;23.52
71424;BME280;59240;51.370;-0.486;2022-07-17T10:37:26;102415.44;;;33.75;24.17
71424;BME280;59240;51.370;-0.486;2022-07-17T10:39:59;102440.69;;;34.13;23.52
71424;BME280;59240;51.370;-0.486;2022-07-17T10:42:47;102445.47;;;34.29;22.52
71424;BME280;59240;51.370;-0.486;2022-07-17T10:50:24;102410.34;;;34.19;23.14
71424;BME280;59240;51.370;-0.486;2022-07-17T10:55:30;102419.44;;;34.55;22.91
71424;BME280;59240;51.370;-0.486;2022-07-17T10:57:57;102427.59;;;34.73;22.71
71424;BME280;59240;51.370;-0.486;2022-07-17T11:00:24;102417.38;;;34.67;22.99
71424;BME280;59240;51.370;-0.486;2022-07-17T11:02:51;102415.78;;;34.74;22.92
71424;BME280;59240;51.370;-0.486;2022-07-17T11:05:18;102418.06;;;34.97;22.94
71424;BME280;59240;51.370;-0.486;2022-07-17T11:07:57;102397.47;;;35.04;22.11
71424;BME280;59240;51.370;-0.486;2022-07-17T11:10:27;102385.94;;;35.02;22.49
71424;BME280;59240;51.370;-0.486;2022-07-17T11:13:06;102403.50;;;34.98;22.33
71424;BME280;59240;51.370;-0.486;2022-07-17T11:15:41;102394.97;;;34.93;22.40
71424;BME280;59240;51.370;-0.486;2022-07-17T11:20:49;102373.78;;;35.06;21.75
71424;BME280;59240;51.370;-0.486;2022-07-17T11:23:15;102391.78;;;35.33;22.21
71424;BME280;59240;51.370;-0.486;2022-07-17T11:28:28;102396.63;;;35.65;21.94
71424;BME280;59240;51.370;-0.486;2022-07-17T11:30:55;102377.81;;;35.63;21.91
71424;BME280;59240;51.370;-0.486;2022-07-17T11:33:22;102378.53;;;35.74;21.60
71424;BME280;59240;51.370;-0.486;2022-07-17T11:35:49;102370.56;;;35.72;21.62
71424;BME280;59240;51.370;-0.486;2022-07-17T11:38:23;102372.59;;;35.70;21.19
71424;BME280;59240;51.370;-0.486;2022-07-17T11:40:50;102364.78;;;35.67;21.61
71424;BME280;59240;51.370;-0.486;2022-07-17T11:43:23;102371.00;;;35.59;21.23
71424;BME280;59240;51.370;-0.486;2022-07-17T11:45:49;102366.00;;;35.47;21.31
71424;BME280;59240;51.370;-0.486;2022-07-17T11:48:16;102360.59;;;35.47;21.41
71424;BME280;59240;51.370;-0.486;2022-07-17T11:50:54;102356.94;;;35.38;21.49
71424;BME280;59240;51.370;-0.486;2022-07-17T11:53:31;102343.16;;;35.31;21.10
71424;BME280;59240;51.370;-0.486;2022-07-17T11:55:58;102329.97;;;35.28;21.34
71424;BME280;59240;51.370;-0.486;2022-07-17T11:58:25;102345.59;;;35.34;20.99
71424;BME280;59240;51.370;-0.486;2022-07-17T12:01:03;102351.22;;;35.41;20.71
71424;BME280;59240;51.370;-0.486;2022-07-17T12:03:30;102330.09;;;35.27;21.50
71424;BME280;59240;51.370;-0.486;2022-07-17T12:05:57;102340.94;;;35.45;21.33
71424;BME280;59240;51.370;-0.486;2022-07-17T12:08:24;102341.66;;;35.55;20.75
71424;BME280;59240;51.370;-0.486;2022-07-17T12:11:06;102319.84;;;35.39;19.95
71424;BME280;59240;51.370;-0.486;2022-07-17T12:13:39;102328.56;;;35.24;20.13
71424;BME280;59240;51.370;-0.486;2022-07-17T12:16:27;102327.25;;;35.28;20.42
71424;BME280;59240;51.370;-0.486;2022-07-17T12:21:33;102324.25;;;35.40;20.25
71424;BME280;59240;51.370;-0.486;2022-07-17T12:24:03;102334.06;;;35.41;20.50
71424;BME280;59240;51.370;-0.486;2022-07-17T12:26:31;102330.63;;;35.48;20.63
71424;BME280;59240;51.370;-0.486;2022-07-17T12:29:00;102325.22;;;35.48;20.04
71424;BME280;59240;51.370;-0.486;2022-07-17T12:31:27;102319.28;;;35.53;19.92
71424;BME280;59240;51.370;-0.486;2022-07-17T12:33:54;102294.00;;;35.44;20.71
71424;BME280;59240;51.370;-0.486;2022-07-17T12:36:22;102316.69;;;35.69;20.41
71424;BME280;59240;51.370;-0.486;2022-07-17T12:38:49;102288.19;;;35.65;19.85
71424;BME280;59240;51.370;-0.486;2022-07-17T12:41:15;102298.19;;;35.65;20.06
71424;BME280;59240;51.370;-0.486;2022-07-17T12:43:43;102305.22;;;35.49;19.64
71424;BME280;59240;51.370;-0.486;2022-07-17T12:46:10;102290.19;;;35.11;20.09
71424;BME280;59240;51.370;-0.486;2022-07-17T12:48:43;102306.84;;;34.98;20.34
71424;BME280;59240;51.370;-0.486;2022-07-17T12:51:11;102305.91;;;34.72;20.41
71424;BME280;59240;51.370;-0.486;2022-07-17T12:53:43;102298.88;;;34.43;20.91
71424;BME280;59240;51.370;-0.486;2022-07-17T12:56:10;102292.25;;;34.28;21.14
71424;BME280;59240;51.370;-0.486;2022-07-17T12:58:37;102293.19;;;34.19;21.32
71424;BME280;59240;51.370;-0.486;2022-07-17T13:01:04;102300.34;;;34.10;21.59
71424;BME280;59240;51.370;-0.486;2022-07-17T13:03:32;102288.66;;;34.10;21.47
71424;BME280;59240;51.370;-0.486;2022-07-17T13:06:00;102309.66;;;34.25;21.34
71424;BME280;59240;51.370;-0.486;2022-07-17T13:08:28;102296.41;;;34.22;21.14
71424;BME280;59240;51.370;-0.486;2022-07-17T13:10:55;102304.25;;;34.25;21.39